createdAt,value
2018-03-11T00:00:38.983Z,20.90
2018-03-11T00:03:05.722Z,20.90
2018-03-11T00:05:32.432Z,20.88
2018-03-11T00:07:59.065Z,20.87
2018-03-11T00:10:25.736Z,20.84
2018-03-11T00:12:52.480Z,20.83
2018-03-11T00:15:19.146Z,20.83
2018-03-11T00:17:45.840Z,20.82
2018-03-11T00:20:12.550Z,20.84
2018-03-11T00:22:39.196Z,20.84
2018-03-11T00:25:05.894Z,20.82
2018-03-11T00:27:32.651Z,20.81
2018-03-11T00:29:59.267Z,20.81
2018-03-11T00:32:26.021Z,20.80
2018-03-11T00:34:52.650Z,20.78
2018-03-11T00:37:19.358Z,20.82
2018-03-11T00:39:46.066Z,20.78
2018-03-11T00:42:12.781Z,20.75
2018-03-11T00:44:39.429Z,20.78
2018-03-11T00:47:06.226Z,20.80
2018-03-11T00:49:32.846Z,20.78
2018-03-11T00:51:59.488Z,20.77
2018-03-11T00:54:26.164Z,20.76
2018-03-11T00:56:52.869Z,20.71
2018-03-11T00:59:19.613Z,20.74
2018-03-11T01:01:46.324Z,20.73
2018-03-11T01:04:13.006Z,20.75
2018-03-11T01:06:39.662Z,20.70
2018-03-11T01:09:06.364Z,20.72
2018-03-11T01:11:33.004Z,20.72
2018-03-11T01:13:59.724Z,20.73
2018-03-11T01:16:26.433Z,20.70
2018-03-11T01:18:53.091Z,20.70
2018-03-11T01:21:19.773Z,20.69
2018-03-11T01:23:46.420Z,20.69
2018-03-11T01:26:13.128Z,20.70
2018-03-11T01:28:39.799Z,20.69
2018-03-11T01:31:06.604Z,20.69
2018-03-11T01:33:33.270Z,20.70
2018-03-11T01:35:59.885Z,20.67
2018-03-11T01:38:26.663Z,20.68
2018-03-11T01:40:53.340Z,20.64
2018-03-11T01:43:20.055Z,20.61
2018-03-11T01:45:46.703Z,20.63
2018-03-11T01:48:13.365Z,20.64
2018-03-11T01:50:40.048Z,20.60
2018-03-11T01:53:06.794Z,20.61
2018-03-11T01:55:33.509Z,20.61
2018-03-11T01:58:00.169Z,20.57
2018-03-11T02:00:26.842Z,20.56
2018-03-11T02:02:53.493Z,20.56
2018-03-11T02:05:20.265Z,20.55
2018-03-11T02:07:46.892Z,20.53
2018-03-11T02:10:13.653Z,20.52
2018-03-11T02:12:40.288Z,20.51
2018-03-11T02:15:06.950Z,20.53
2018-03-11T02:17:33.625Z,20.55
2018-03-11T02:20:00.333Z,20.51
2018-03-11T02:22:27.075Z,20.50
2018-03-11T02:24:53.752Z,20.49
2018-03-11T02:27:20.457Z,20.47
2018-03-11T02:29:47.127Z,20.46
2018-03-11T02:32:13.765Z,20.45
2018-03-11T02:34:40.429Z,20.44
2018-03-11T02:37:07.134Z,20.43
2018-03-11T02:39:33.771Z,20.42
2018-03-11T02:42:00.557Z,20.43
2018-03-11T02:44:27.216Z,20.40
2018-03-11T02:46:53.961Z,20.42
2018-03-11T02:49:20.599Z,20.42
2018-03-11T02:51:47.317Z,20.40
2018-03-11T02:54:13.947Z,20.37
2018-03-11T02:56:40.726Z,20.38
2018-03-11T02:59:07.391Z,20.37
2018-03-11T03:01:34.058Z,20.34
2018-03-11T03:04:00.725Z,20.36
2018-03-11T03:06:27.389Z,20.37
2018-03-11T03:08:54.062Z,20.37
2018-03-11T03:11:20.726Z,20.33
2018-03-11T03:13:47.457Z,20.32
2018-03-11T03:16:14.163Z,20.35
2018-03-11T03:18:40.834Z,20.30
2018-03-11T03:21:07.503Z,20.29
2018-03-11T03:23:34.244Z,20.29
2018-03-11T03:26:01.013Z,20.28
2018-03-11T03:28:27.648Z,20.27
2018-03-11T03:30:54.386Z,20.25
2018-03-11T03:33:20.994Z,20.31
2018-03-11T03:35:47.710Z,20.27
2018-03-11T03:38:14.380Z,20.27
2018-03-11T03:40:41.085Z,20.26
2018-03-11T03:43:07.725Z,20.24
2018-03-11T03:45:34.422Z,20.22
2018-03-11T03:48:01.091Z,20.21
2018-03-11T03:50:27.725Z,20.20
2018-03-11T03:52:54.387Z,20.24
2018-03-11T03:55:21.071Z,20.21
2018-03-11T03:57:47.744Z,20.18
2018-03-11T04:00:14.497Z,20.17
2018-03-11T04:02:41.209Z,20.16
2018-03-11T04:05:07.847Z,20.17
2018-03-11T04:07:34.561Z,20.15
2018-03-11T04:10:01.214Z,20.16
2018-03-11T04:12:27.858Z,20.15
2018-03-11T04:14:54.556Z,20.13
2018-03-11T04:17:21.203Z,20.13
2018-03-11T04:19:47.876Z,20.12
2018-03-11T04:22:14.544Z,20.12
2018-03-11T04:24:41.245Z,20.11
2018-03-11T04:27:07.914Z,20.11
2018-03-11T04:29:34.554Z,20.12
2018-03-11T04:32:01.232Z,20.08
2018-03-11T04:34:27.932Z,20.04
2018-03-11T04:36:54.647Z,20.08
2018-03-11T04:39:21.304Z,20.07
2018-03-11T04:41:48.019Z,20.04
2018-03-11T04:44:14.688Z,20.04
2018-03-11T04:46:41.319Z,20.04
2018-03-11T04:49:07.979Z,20.03
2018-03-11T04:51:34.661Z,20.03
2018-03-11T04:54:01.324Z,20.07
2018-03-11T04:56:28.091Z,20.10
2018-03-11T04:58:54.751Z,20.10
2018-03-11T05:01:21.417Z,20.13
2018-03-11T05:03:48.095Z,20.16
2018-03-11T05:06:14.799Z,20.22
2018-03-11T05:08:41.483Z,20.27
2018-03-11T05:11:08.108Z,20.31
2018-03-11T05:13:34.798Z,20.37
2018-03-11T05:16:01.474Z,20.45
2018-03-11T05:18:28.178Z,20.52
2018-03-11T05:20:54.886Z,20.56
2018-03-11T05:23:21.611Z,20.62
2018-03-11T05:25:48.370Z,20.68
2018-03-11T05:28:15.033Z,20.73
2018-03-11T05:30:41.752Z,20.78
2018-03-11T05:33:08.542Z,20.80
2018-03-11T05:35:35.243Z,20.88
2018-03-11T05:38:01.948Z,20.94
2018-03-11T05:40:28.643Z,21.04
2018-03-11T05:42:55.305Z,21.11
2018-03-11T05:45:22.074Z,21.19
2018-03-11T05:47:48.786Z,21.26
2018-03-11T05:50:15.460Z,21.34
2018-03-11T05:52:42.162Z,21.40
2018-03-11T05:55:08.835Z,21.46
2018-03-11T05:57:35.531Z,21.50
2018-03-11T06:00:02.245Z,21.54
2018-03-11T06:02:28.963Z,21.59
2018-03-11T06:04:55.637Z,21.60
2018-03-11T06:07:22.299Z,21.66
2018-03-11T06:09:48.975Z,21.76
2018-03-11T06:12:15.729Z,21.79
2018-03-11T06:14:42.422Z,21.81
2018-03-11T06:17:09.044Z,21.87
2018-03-11T06:19:35.709Z,21.90
2018-03-11T06:22:02.417Z,21.98
2018-03-11T06:24:29.219Z,22.02
2018-03-11T06:26:55.896Z,22.04
2018-03-11T06:29:22.576Z,22.10
2018-03-11T06:31:49.309Z,22.14
2018-03-11T06:34:15.955Z,22.16
2018-03-11T06:36:42.638Z,22.25
2018-03-11T06:39:09.268Z,22.26
2018-03-11T06:41:35.939Z,22.28
2018-03-11T06:44:02.588Z,22.33
2018-03-11T06:46:29.232Z,22.37
2018-03-11T06:48:55.910Z,22.39
2018-03-11T06:51:22.543Z,22.45
2018-03-11T06:53:49.258Z,22.42
2018-03-11T06:56:15.904Z,22.52
2018-03-11T06:58:44.744Z,22.49
2018-03-11T07:01:09.207Z,22.48
2018-03-11T07:03:35.882Z,22.53
2018-03-11T07:06:02.568Z,22.56
2018-03-11T07:08:29.246Z,22.60
2018-03-11T07:10:55.950Z,22.62
2018-03-11T07:13:22.541Z,22.64
2018-03-11T07:15:49.205Z,22.66
2018-03-11T07:18:15.814Z,22.66
2018-03-11T07:20:42.499Z,22.68
2018-03-11T07:23:09.135Z,22.72
2018-03-11T07:25:35.814Z,22.72
2018-03-11T07:28:02.427Z,22.75
2018-03-11T07:30:29.067Z,22.73
2018-03-11T07:32:55.741Z,22.74
2018-03-11T07:35:22.425Z,22.73
2018-03-11T07:37:49.034Z,22.77
2018-03-11T07:40:15.672Z,22.78
2018-03-11T07:42:42.327Z,22.78
2018-03-11T07:45:08.991Z,22.79
2018-03-11T07:47:35.718Z,22.78
2018-03-11T07:50:02.371Z,22.81
2018-03-11T07:52:28.976Z,22.68
2018-03-11T07:54:55.654Z,22.80
2018-03-11T07:57:22.340Z,22.78
2018-03-11T07:59:49.000Z,22.77
2018-03-11T08:02:15.600Z,22.81
2018-03-11T08:04:42.335Z,22.79
2018-03-11T08:07:09.036Z,22.80
2018-03-11T08:09:35.637Z,22.80
2018-03-11T08:12:02.303Z,22.81
2018-03-11T08:14:28.969Z,22.88
2018-03-11T08:16:55.589Z,22.85
2018-03-11T08:19:22.245Z,22.87
2018-03-11T08:21:48.914Z,22.87
2018-03-11T08:24:15.634Z,22.93
2018-03-11T08:26:42.270Z,22.92
2018-03-11T08:29:08.919Z,22.95
2018-03-11T08:31:35.607Z,22.97
2018-03-11T08:34:02.241Z,22.97
2018-03-11T08:36:28.919Z,22.99
2018-03-11T08:38:55.544Z,23.02
2018-03-11T08:41:22.182Z,23.02
2018-03-11T08:43:48.816Z,22.99
2018-03-11T08:46:15.526Z,23.03
2018-03-11T08:48:42.156Z,23.02
2018-03-11T08:51:08.750Z,23.02
2018-03-11T08:53:35.403Z,22.99
2018-03-11T08:56:02.078Z,22.99
2018-03-11T08:58:28.705Z,23.02
2018-03-11T09:00:55.397Z,23.01
2018-03-11T09:03:22.151Z,22.98
2018-03-11T09:05:48.750Z,22.97
2018-03-11T09:08:15.431Z,22.98
2018-03-11T09:10:42.086Z,23.00
2018-03-11T09:13:08.714Z,22.98
2018-03-11T09:15:35.416Z,22.99
2018-03-11T09:18:02.008Z,22.97
2018-03-11T09:20:28.772Z,22.97
2018-03-11T09:22:55.413Z,22.94
2018-03-11T09:25:22.055Z,22.96
2018-03-11T09:27:48.722Z,22.97
2018-03-11T09:30:15.362Z,22.95
2018-03-11T09:32:42.022Z,22.89
2018-03-11T09:35:08.666Z,22.91
2018-03-11T09:37:35.317Z,22.90
2018-03-11T09:40:01.960Z,22.87
2018-03-11T09:42:28.605Z,22.93
2018-03-11T09:44:55.244Z,22.91
2018-03-11T09:47:21.915Z,22.94
2018-03-11T09:49:48.535Z,22.91
2018-03-11T09:52:15.302Z,22.90
2018-03-11T09:54:41.867Z,22.90
2018-03-11T09:57:08.544Z,22.85
2018-03-11T09:59:35.182Z,22.91
2018-03-11T10:02:01.810Z,22.90
2018-03-11T10:04:28.489Z,22.90
2018-03-11T10:06:55.095Z,22.90
2018-03-11T10:09:21.780Z,22.91
2018-03-11T10:11:48.429Z,22.87
2018-03-11T10:14:15.029Z,22.94
2018-03-11T10:16:41.701Z,22.95
2018-03-11T10:19:08.299Z,22.93
2018-03-11T10:21:34.987Z,22.96
2018-03-11T10:24:01.620Z,22.98
2018-03-11T10:26:28.297Z,22.95
2018-03-11T10:28:54.924Z,22.97
2018-03-11T10:31:21.539Z,22.99
2018-03-11T10:33:48.212Z,22.98
2018-03-11T10:36:14.855Z,23.00
2018-03-11T10:38:41.456Z,22.99
2018-03-11T10:41:08.094Z,22.96
2018-03-11T10:43:34.764Z,23.00
2018-03-11T10:46:01.435Z,22.99
2018-03-11T10:48:28.155Z,23.00
2018-03-11T10:50:54.889Z,22.99
2018-03-11T10:53:21.436Z,23.03
2018-03-11T10:55:48.090Z,23.03
2018-03-11T10:58:14.732Z,23.01
2018-03-11T11:00:41.371Z,23.01
2018-03-11T11:03:08.012Z,23.03
2018-03-11T11:05:34.755Z,23.04
2018-03-11T11:08:01.391Z,23.06
2018-03-11T11:10:28.067Z,23.06
2018-03-11T11:12:54.741Z,23.00
2018-03-11T11:15:21.395Z,23.04
2018-03-11T11:17:48.063Z,23.03
2018-03-11T11:20:14.703Z,23.03
2018-03-11T11:22:41.311Z,23.07
2018-03-11T11:25:07.976Z,23.07
2018-03-11T11:27:34.625Z,23.05
2018-03-11T11:30:01.258Z,23.11
2018-03-11T11:32:27.904Z,23.13
2018-03-11T11:34:54.499Z,23.09
2018-03-11T11:37:21.176Z,23.12
2018-03-11T11:39:47.819Z,23.11
2018-03-11T11:42:14.464Z,23.14
2018-03-11T11:44:41.138Z,23.13
2018-03-11T11:47:07.817Z,23.15
2018-03-11T11:49:34.499Z,23.10
2018-03-11T11:52:01.133Z,23.15
2018-03-11T11:54:27.778Z,23.15
2018-03-11T11:56:54.381Z,23.14
2018-03-11T11:59:21.063Z,23.13
2018-03-11T12:01:47.714Z,23.16
2018-03-11T12:04:15.765Z,23.19
2018-03-11T12:06:41.035Z,23.21
2018-03-11T12:09:07.696Z,23.18
2018-03-11T12:11:34.342Z,23.18
2018-03-11T12:14:00.954Z,23.17
2018-03-11T12:16:27.627Z,23.18
2018-03-11T12:18:54.255Z,23.18
2018-03-11T12:21:20.901Z,23.19
2018-03-11T12:23:47.512Z,23.22
2018-03-11T12:26:14.151Z,23.20
2018-03-11T12:28:40.830Z,23.21
2018-03-11T12:31:07.458Z,23.25
2018-03-11T12:33:34.132Z,23.22
2018-03-11T12:36:00.736Z,23.22
2018-03-11T12:38:27.444Z,23.19
2018-03-11T12:40:54.085Z,23.23
2018-03-11T12:43:20.682Z,23.24
2018-03-11T12:45:47.357Z,23.13
2018-03-11T12:48:13.959Z,23.25
2018-03-11T12:50:40.591Z,23.23
2018-03-11T12:53:07.265Z,23.26
2018-03-11T12:55:33.898Z,23.27
2018-03-11T12:58:00.542Z,23.26
2018-03-11T13:00:27.141Z,23.25
2018-03-11T13:02:53.822Z,23.28
2018-03-11T13:05:20.425Z,23.25
2018-03-11T13:07:47.101Z,23.27
2018-03-11T13:10:13.704Z,23.26
2018-03-11T13:12:40.335Z,23.29
2018-03-11T13:15:06.970Z,23.27
2018-03-11T13:17:33.637Z,23.27
2018-03-11T13:20:00.243Z,23.28
2018-03-11T13:22:26.940Z,23.28
2018-03-11T13:24:53.627Z,23.29
2018-03-11T13:27:20.255Z,23.26
2018-03-11T13:29:46.882Z,23.30
2018-03-11T13:32:13.599Z,23.27
2018-03-11T13:34:40.233Z,23.30
2018-03-11T13:37:06.904Z,23.30
2018-03-11T13:39:33.545Z,23.29
2018-03-11T13:42:00.187Z,23.27
2018-03-11T13:44:26.848Z,23.30
2018-03-11T13:46:53.492Z,23.32
2018-03-11T13:49:20.165Z,23.29
2018-03-11T13:51:46.762Z,23.33
2018-03-11T13:54:13.447Z,23.29
2018-03-11T13:56:40.088Z,23.30
2018-03-11T13:59:06.765Z,23.31
2018-03-11T14:01:33.437Z,23.30
2018-03-11T14:04:00.116Z,23.29
2018-03-11T14:06:26.735Z,23.32
2018-03-11T14:08:53.469Z,23.29
2018-03-11T14:11:20.143Z,23.30
2018-03-11T14:13:46.777Z,23.28
2018-03-11T14:16:13.417Z,23.28
2018-03-11T14:18:40.025Z,23.29
2018-03-11T14:21:06.715Z,23.29
2018-03-11T14:23:33.342Z,23.28
2018-03-11T14:26:00.066Z,23.29
2018-03-11T14:28:26.688Z,23.28
2018-03-11T14:30:53.367Z,23.27
2018-03-11T14:33:20.004Z,23.26
2018-03-11T14:35:46.681Z,23.25
2018-03-11T14:38:13.275Z,23.25
2018-03-11T14:40:40.012Z,23.22
2018-03-11T14:43:06.620Z,23.20
2018-03-11T14:45:33.258Z,23.20
2018-03-11T14:47:59.940Z,23.21
2018-03-11T14:50:26.653Z,23.17
2018-03-11T14:52:53.291Z,23.18
2018-03-11T14:55:19.978Z,23.17
2018-03-11T14:57:46.576Z,23.14
2018-03-11T15:00:13.206Z,23.16
2018-03-11T15:02:39.867Z,23.16
2018-03-11T15:05:06.504Z,23.15
2018-03-11T15:07:33.149Z,23.13
2018-03-11T15:09:59.793Z,23.10
2018-03-11T15:12:26.531Z,23.10
2018-03-11T15:14:53.147Z,23.09
2018-03-11T15:17:19.813Z,23.09
2018-03-11T15:19:46.418Z,23.07
2018-03-11T15:22:13.093Z,23.06
2018-03-11T15:24:39.862Z,23.05
2018-03-11T15:27:06.460Z,23.05
2018-03-11T15:29:33.144Z,23.06
2018-03-11T15:31:59.775Z,23.07
2018-03-11T15:34:26.416Z,23.06
2018-03-11T15:36:53.106Z,23.05
2018-03-11T15:39:19.747Z,23.04
2018-03-11T15:41:46.404Z,23.04
2018-03-11T15:44:13.034Z,23.03
2018-03-11T15:46:39.738Z,23.03
2018-03-11T15:49:07.675Z,23.02
2018-03-11T15:51:33.214Z,23.00
2018-03-11T15:53:59.861Z,23.01
2018-03-11T15:56:26.525Z,23.02
2018-03-11T15:58:53.197Z,22.99
2018-03-11T16:01:19.841Z,22.99
2018-03-11T16:03:46.520Z,22.97
2018-03-11T16:06:13.162Z,22.97
2018-03-11T16:08:39.808Z,22.96
2018-03-11T16:11:06.807Z,22.96
2018-03-11T16:13:33.478Z,22.96
2018-03-11T16:16:00.150Z,22.97
2018-03-11T16:18:26.799Z,22.96
2018-03-11T16:20:53.434Z,22.95
2018-03-11T16:23:20.120Z,22.96
2018-03-11T16:25:46.758Z,22.94
2018-03-11T16:28:13.445Z,22.92
2018-03-11T16:30:40.107Z,22.93
2018-03-11T16:33:06.751Z,22.91
2018-03-11T16:35:33.453Z,22.90
2018-03-11T16:38:00.091Z,22.86
2018-03-11T16:40:26.737Z,22.88
2018-03-11T16:42:53.372Z,22.86
2018-03-11T16:45:20.088Z,22.86
2018-03-11T16:47:46.735Z,22.85
2018-03-11T16:50:13.366Z,22.84
2018-03-11T16:52:40.000Z,22.83
2018-03-11T16:55:06.673Z,22.83
2018-03-11T16:57:33.272Z,22.81
2018-03-11T16:59:59.976Z,22.81
2018-03-11T17:02:26.625Z,22.82
2018-03-11T17:04:53.338Z,22.80
2018-03-11T17:07:19.981Z,22.80
2018-03-11T17:09:46.619Z,22.81
2018-03-11T17:12:13.268Z,22.79
2018-03-11T17:14:39.906Z,22.79
2018-03-11T17:17:09.650Z,22.79
2018-03-11T17:19:36.300Z,22.76
2018-03-11T17:22:02.975Z,22.74
2018-03-11T17:24:29.617Z,22.75
2018-03-11T17:26:56.360Z,22.74
2018-03-11T17:29:22.993Z,22.73
2018-03-11T17:31:49.599Z,22.74
2018-03-11T17:34:16.242Z,22.71
2018-03-11T17:36:42.964Z,22.69
2018-03-11T17:39:09.600Z,22.67
2018-03-11T17:41:36.233Z,22.67
2018-03-11T17:44:02.882Z,22.66
2018-03-11T17:46:29.521Z,22.65
2018-03-11T17:48:56.171Z,22.64
2018-03-11T17:51:22.832Z,22.65
2018-03-11T17:53:49.434Z,22.66
2018-03-11T17:56:16.075Z,22.63
2018-03-11T17:58:42.782Z,22.61
2018-03-11T18:01:09.386Z,22.63
2018-03-11T18:03:36.031Z,22.59
2018-03-11T18:06:02.698Z,22.58
2018-03-11T18:08:29.305Z,22.57
2018-03-11T18:10:55.946Z,22.57
2018-03-11T18:13:22.672Z,22.54
2018-03-11T18:15:49.304Z,22.54
2018-03-11T18:18:15.997Z,22.56
2018-03-11T18:20:42.614Z,22.54
2018-03-11T18:23:09.272Z,22.55
2018-03-11T18:25:35.974Z,22.54
2018-03-11T18:28:02.649Z,22.54
2018-03-11T18:30:29.264Z,22.53
2018-03-11T18:32:55.928Z,22.51
2018-03-11T18:35:22.592Z,22.52
2018-03-11T18:37:49.230Z,22.50
2018-03-11T18:40:15.896Z,22.52
2018-03-11T18:42:42.576Z,22.49
2018-03-11T18:45:09.182Z,22.49
2018-03-11T18:47:35.892Z,22.49
2018-03-11T18:50:02.598Z,22.48
2018-03-11T18:52:29.220Z,22.47
2018-03-11T18:54:55.862Z,22.48
2018-03-11T18:57:22.563Z,22.47
2018-03-11T18:59:49.198Z,22.46
2018-03-11T19:02:15.877Z,22.44
2018-03-11T19:04:42.507Z,22.44
2018-03-11T19:07:09.152Z,22.45
2018-03-11T19:09:35.785Z,22.43
2018-03-11T19:12:02.477Z,22.43
2018-03-11T19:14:29.117Z,22.41
2018-03-11T19:16:55.755Z,22.41
2018-03-11T19:19:22.440Z,22.39
2018-03-11T19:21:49.067Z,22.41
2018-03-11T19:24:15.704Z,22.40
2018-03-11T19:26:42.343Z,22.40
2018-03-11T19:29:09.055Z,22.38
2018-03-11T19:31:35.645Z,22.39
2018-03-11T19:34:02.296Z,22.38
2018-03-11T19:36:28.914Z,22.37
2018-03-11T19:38:55.587Z,22.37
2018-03-11T19:41:22.257Z,22.36
2018-03-11T19:43:48.884Z,22.36
2018-03-11T19:46:15.525Z,22.36
2018-03-11T19:48:42.157Z,22.35
2018-03-11T19:51:08.816Z,22.33
2018-03-11T19:53:35.487Z,22.35
2018-03-11T19:56:02.155Z,22.31
2018-03-11T19:58:28.755Z,22.30
2018-03-11T20:00:55.404Z,22.30
2018-03-11T20:03:22.078Z,22.29
2018-03-11T20:05:48.675Z,22.29
2018-03-11T20:08:15.317Z,22.31
2018-03-11T20:10:41.951Z,22.28
2018-03-11T20:13:08.596Z,22.28
2018-03-11T20:15:35.258Z,22.27
2018-03-11T20:18:01.903Z,22.28
2018-03-11T20:20:28.545Z,22.26
2018-03-11T20:22:55.154Z,22.26
2018-03-11T20:25:21.789Z,22.25
2018-03-11T20:27:48.464Z,22.24
2018-03-11T20:30:15.070Z,22.24
2018-03-11T20:32:41.707Z,22.24
2018-03-11T20:35:08.347Z,22.25
2018-03-11T20:37:34.980Z,22.25
2018-03-11T20:40:01.616Z,22.23
2018-03-11T20:42:28.282Z,22.21
2018-03-11T20:44:54.901Z,22.22
2018-03-11T20:47:21.566Z,22.21
2018-03-11T20:49:48.163Z,22.17
2018-03-11T20:52:14.847Z,22.16
2018-03-11T20:54:41.488Z,22.18
2018-03-11T20:57:08.089Z,22.17
2018-03-11T20:59:34.741Z,22.15
2018-03-11T21:02:01.693Z,22.16
2018-03-11T21:04:28.344Z,22.15
2018-03-11T21:06:54.977Z,22.16
2018-03-11T21:09:21.613Z,22.16
2018-03-11T21:11:48.263Z,22.15
2018-03-11T21:14:14.905Z,22.12
2018-03-11T21:16:41.547Z,22.12
2018-03-11T21:19:08.159Z,22.11
2018-03-11T21:21:34.837Z,22.10
2018-03-11T21:24:01.448Z,22.09
2018-03-11T21:26:28.131Z,22.09
2018-03-11T21:28:54.777Z,22.11
2018-03-11T21:31:21.419Z,22.07
2018-03-11T21:33:48.061Z,22.07
2018-03-11T21:36:14.656Z,22.07
2018-03-11T21:38:41.303Z,22.07
2018-03-11T21:41:07.936Z,22.07
2018-03-11T21:43:34.578Z,22.01
2018-03-11T21:46:01.251Z,22.04
2018-03-11T21:48:27.922Z,22.05
2018-03-11T21:50:54.579Z,22.02
2018-03-11T21:53:21.224Z,22.01
2018-03-11T21:55:47.863Z,22.03
2018-03-11T21:58:14.505Z,22.01
2018-03-11T22:00:41.144Z,22.01
2018-03-11T22:03:07.787Z,22.01
2018-03-11T22:05:34.423Z,22.00
2018-03-11T22:08:01.164Z,21.97
2018-03-11T22:10:27.841Z,21.99
2018-03-11T22:12:54.492Z,21.98
2018-03-11T22:15:21.176Z,21.97
2018-03-11T22:17:47.900Z,21.99
2018-03-11T22:20:14.591Z,21.97
2018-03-11T22:22:41.274Z,21.96
2018-03-11T22:25:07.983Z,21.95
2018-03-11T22:27:34.613Z,21.94
2018-03-11T22:30:01.287Z,21.95
2018-03-11T22:32:27.968Z,21.94
2018-03-11T22:34:54.633Z,21.91
2018-03-11T22:37:21.317Z,21.92
2018-03-11T22:39:47.952Z,21.92
2018-03-11T22:42:14.625Z,21.92
2018-03-11T22:44:41.269Z,21.89
2018-03-11T22:47:07.956Z,21.92
2018-03-11T22:49:34.603Z,21.89
2018-03-11T22:52:01.237Z,21.90
2018-03-11T22:54:27.962Z,21.90
2018-03-11T22:56:54.636Z,21.86
2018-03-11T22:59:21.232Z,21.87
2018-03-11T23:01:47.904Z,21.86
2018-03-11T23:04:14.580Z,21.86
2018-03-11T23:06:41.210Z,21.85
2018-03-11T23:09:07.896Z,21.87
2018-03-11T23:11:34.524Z,21.85
2018-03-11T23:14:01.233Z,21.83
2018-03-11T23:16:27.873Z,21.84
2018-03-11T23:18:54.572Z,21.84
2018-03-11T23:21:21.206Z,21.83
2018-03-11T23:23:47.834Z,21.82
2018-03-11T23:26:14.482Z,21.82
2018-03-11T23:28:41.145Z,21.82
2018-03-11T23:31:07.775Z,21.82
2018-03-11T23:33:34.449Z,21.81
2018-03-11T23:36:01.083Z,21.79
2018-03-11T23:38:27.768Z,21.79
2018-03-11T23:40:54.380Z,21.79
2018-03-11T23:43:21.089Z,21.78
2018-03-11T23:45:47.688Z,21.77
2018-03-11T23:48:14.358Z,21.78
2018-03-11T23:50:40.996Z,21.76
2018-03-11T23:53:07.675Z,21.77
2018-03-11T23:55:34.354Z,21.79
2018-03-11T23:58:01.036Z,21.78
